createdAt,value
2018-01-10T00:00:06.252Z,1000.44
2018-01-10T00:01:06.254Z,1000.46
2018-01-10T00:02:06.264Z,1000.5
2018-01-10T00:03:06.275Z,1000.54
2018-01-10T00:04:06.303Z,1000.54
2018-01-10T00:05:06.309Z,1000.54
2018-01-10T00:06:06.338Z,1000.57
2018-01-10T00:07:06.321Z,1000.54
2018-01-10T00:08:06.345Z,1000.56
2018-01-10T00:09:06.343Z,1000.59
2018-01-10T00:10:06.366Z,1000.61
2018-01-10T00:11:06.377Z,1000.56
2018-01-10T00:12:06.381Z,1000.56
2018-01-10T00:13:06.390Z,1000.56
2018-01-10T00:14:06.412Z,1000.56
2018-01-10T00:15:06.424Z,1000.53
2018-01-10T00:16:06.425Z,1000.53
2018-01-10T00:17:06.436Z,1000.51
2018-01-10T00:18:06.447Z,1000.51
2018-01-10T00:19:06.471Z,1000.56
2018-01-10T00:20:06.470Z,1000.6
2018-01-10T00:21:06.483Z,1000.61
2018-01-10T00:22:06.493Z,1000.63
2018-01-10T00:23:06.507Z,1000.61
2018-01-10T00:24:06.517Z,1000.66
2018-01-10T00:25:06.539Z,1000.64
2018-01-10T00:26:06.542Z,1000.68
2018-01-10T00:27:06.554Z,1000.67
2018-01-10T00:28:06.563Z,1000.66
2018-01-10T00:29:06.585Z,1000.7
2018-01-10T00:30:06.588Z,1000.68
2018-01-10T00:31:06.610Z,1000.66
2018-01-10T00:32:06.609Z,1000.63
2018-01-10T00:33:06.620Z,1000.59
2018-01-10T00:34:06.632Z,1000.57
2018-01-10T00:35:06.703Z,1000.54
2018-01-10T00:36:06.665Z,1000.54
2018-01-10T00:37:06.665Z,1000.49
2018-01-10T00:38:06.692Z,1000.45
2018-01-10T00:39:06.702Z,1000.43
2018-01-10T00:40:06.713Z,1000.42
2018-01-10T00:41:06.723Z,1000.39
2018-01-10T00:42:06.723Z,1000.38
2018-01-10T00:43:06.745Z,1000.4
2018-01-10T00:44:06.749Z,1000.41
2018-01-10T00:45:06.759Z,1000.45
2018-01-10T00:46:06.770Z,1000.45
2018-01-10T00:47:06.781Z,1000.46
2018-01-10T00:48:06.793Z,1000.45
2018-01-10T00:49:06.804Z,1000.45
2018-01-10T00:50:06.817Z,1000.46
2018-01-10T00:51:06.837Z,1000.49
2018-01-10T00:52:06.849Z,1000.48
2018-01-10T00:53:06.851Z,1000.44
2018-01-10T00:54:06.867Z,1000.44
2018-01-10T00:55:06.875Z,1000.48
2018-01-10T00:56:06.896Z,1000.45
2018-01-10T00:57:06.912Z,1000.49
2018-01-10T00:58:06.917Z,1000.51
2018-01-10T00:59:06.919Z,1000.52
2018-01-10T01:00:06.942Z,1000.51
2018-01-10T01:01:06.951Z,1000.47
2018-01-10T01:02:06.954Z,1000.47
2018-01-10T01:03:06.978Z,1000.48
2018-01-10T01:04:06.990Z,1000.51
2018-01-10T01:05:06.988Z,1000.56
2018-01-10T01:06:07.000Z,1000.57
2018-01-10T01:07:07.023Z,1000.59
2018-01-10T01:08:07.021Z,1000.61
2018-01-10T01:09:07.059Z,1000.6
2018-01-10T01:10:07.045Z,1000.61
2018-01-10T01:11:07.070Z,1000.62
2018-01-10T01:12:07.078Z,1000.67
2018-01-10T01:13:07.080Z,1000.68
2018-01-10T01:14:07.139Z,1000.72
2018-01-10T01:15:07.112Z,1000.73
2018-01-10T01:16:07.123Z,1000.78
2018-01-10T01:17:07.137Z,1000.78
2018-01-10T01:18:07.137Z,1000.76
2018-01-10T01:19:07.147Z,1000.81
2018-01-10T01:20:07.161Z,1000.76
2018-01-10T01:21:07.171Z,1000.8
2018-01-10T01:22:07.185Z,1000.78
2018-01-10T01:23:07.194Z,1000.76
2018-01-10T01:24:07.206Z,1000.75
2018-01-10T01:25:07.219Z,1000.76
2018-01-10T01:26:07.239Z,1000.72
2018-01-10T01:27:07.251Z,1000.68
2018-01-10T01:28:07.265Z,1000.64
2018-01-10T01:29:07.274Z,1000.65
2018-01-10T01:30:07.277Z,1000.66
2018-01-10T01:31:07.298Z,1000.62
2018-01-10T01:32:07.298Z,1000.67
2018-01-10T01:33:07.323Z,1000.66
2018-01-10T01:34:07.320Z,1000.69
2018-01-10T01:35:07.344Z,1000.71
2018-01-10T01:36:07.344Z,1000.7
2018-01-10T01:37:07.367Z,1000.7
2018-01-10T01:38:07.366Z,1000.7
2018-01-10T01:39:07.394Z,1000.72
2018-01-10T01:40:07.402Z,1000.72
2018-01-10T01:41:07.411Z,1000.74
2018-01-10T01:42:07.412Z,1000.72
2018-01-10T01:43:07.424Z,1000.76
2018-01-10T01:44:07.445Z,1000.78
2018-01-10T01:45:07.457Z,1000.75
2018-01-10T01:46:07.478Z,1000.76
2018-01-10T01:47:07.485Z,1000.75
2018-01-10T01:48:07.495Z,1000.8
2018-01-10T01:49:07.503Z,1000.83
2018-01-10T01:50:07.504Z,1000.81
2018-01-10T01:51:07.515Z,1000.81
2018-01-10T01:52:07.527Z,1000.82
2018-01-10T01:53:07.548Z,1000.8
2018-01-10T01:54:07.550Z,1000.79
2018-01-10T01:55:07.560Z,1000.8
2018-01-10T01:56:07.582Z,1000.77
2018-01-10T01:57:07.595Z,1000.83
2018-01-10T01:58:07.595Z,1000.84
2018-01-10T01:59:07.621Z,1000.82
2018-01-10T02:00:07.628Z,1000.84
2018-01-10T02:01:07.629Z,1000.79
2018-01-10T02:02:07.641Z,1000.82
2018-01-10T02:03:07.651Z,1000.78
2018-01-10T02:04:07.677Z,1000.82
2018-01-10T02:05:07.674Z,1000.82
2018-01-10T02:06:07.685Z,1000.81
2018-01-10T02:07:07.708Z,1000.76
2018-01-10T02:08:07.708Z,1000.77
2018-01-10T02:09:07.720Z,1000.73
2018-01-10T02:10:07.830Z,1000.78
2018-01-10T02:11:07.743Z,1000.74
2018-01-10T02:12:07.754Z,1000.73
2018-01-10T02:13:07.767Z,1000.73
2018-01-10T02:14:07.777Z,1000.77
2018-01-10T02:15:07.788Z,1000.71
2018-01-10T02:16:07.802Z,1000.74
2018-01-10T02:17:07.822Z,1000.72
2018-01-10T02:18:07.822Z,1000.77
2018-01-10T02:19:07.844Z,1000.79
2018-01-10T02:20:07.855Z,1000.76
2018-01-10T02:21:07.869Z,1000.77
2018-01-10T02:22:07.878Z,1000.8
2018-01-10T02:23:07.889Z,1000.79
2018-01-10T02:24:07.929Z,1000.83
2018-01-10T02:25:07.901Z,1000.79
2018-01-10T02:26:07.915Z,1000.81
2018-01-10T02:27:07.935Z,1000.82
2018-01-10T02:28:07.949Z,1000.8
2018-01-10T02:29:07.945Z,1000.8
2018-01-10T02:30:07.969Z,1000.78
2018-01-10T02:31:08.035Z,1000.76
2018-01-10T02:32:07.982Z,1000.74
2018-01-10T02:33:07.992Z,1000.74
2018-01-10T02:34:08.005Z,1000.7
2018-01-10T02:35:08.025Z,1000.69
2018-01-10T02:36:08.036Z,1000.62
2018-01-10T02:37:08.036Z,1000.62
2018-01-10T02:38:08.051Z,1000.61
2018-01-10T02:39:08.073Z,1000.61
2018-01-10T02:40:08.071Z,1000.61
2018-01-10T02:41:08.093Z,1000.65
2018-01-10T02:42:08.104Z,1000.65
2018-01-10T02:43:08.115Z,1000.73
2018-01-10T02:44:08.116Z,1000.69
2018-01-10T02:45:08.127Z,1000.69
2018-01-10T02:46:08.290Z,1000.68
2018-01-10T02:47:08.152Z,1000.65
2018-01-10T02:48:08.162Z,1000.62
2018-01-10T02:49:08.173Z,1000.61
2018-01-10T02:50:08.195Z,1000.6
2018-01-10T02:51:08.204Z,1000.6
2018-01-10T02:52:08.207Z,1000.55
2018-01-10T02:53:08.228Z,1000.55
2018-01-10T02:54:08.238Z,1000.52
2018-01-10T02:55:08.251Z,1000.54
2018-01-10T02:56:08.415Z,1000.54
2018-01-10T02:57:08.276Z,1000.52
2018-01-10T02:58:08.284Z,1000.5
2018-01-10T02:59:08.295Z,1000.54
2018-01-10T03:00:08.297Z,1000.54
2018-01-10T03:01:08.307Z,1000.54
2018-01-10T03:02:08.329Z,1000.52
2018-01-10T03:03:08.340Z,1000.5
2018-01-10T03:04:08.352Z,1000.5
2018-01-10T03:05:08.352Z,1000.51
2018-01-10T03:06:08.364Z,1000.46
2018-01-10T03:07:08.385Z,1000.47
2018-01-10T03:08:08.385Z,1000.44
2018-01-10T03:09:08.407Z,1000.46
2018-01-10T03:10:08.410Z,1000.48
2018-01-10T03:11:08.419Z,1000.5
2018-01-10T03:12:08.430Z,1000.5
2018-01-10T03:13:08.452Z,1000.51
2018-01-10T03:14:08.463Z,1000.5
2018-01-10T03:15:08.466Z,1000.49
2018-01-10T03:16:08.474Z,1000.49
2018-01-10T03:17:08.487Z,1000.49
2018-01-10T03:18:08.508Z,1000.45
2018-01-10T03:19:08.519Z,1000.48
2018-01-10T03:20:08.523Z,1000.45
2018-01-10T03:21:08.530Z,1000.42
2018-01-10T03:22:08.555Z,1000.45
2018-01-10T03:23:08.566Z,1000.42
2018-01-10T03:24:08.574Z,1000.41
2018-01-10T03:25:08.575Z,1000.39
2018-01-10T03:26:08.597Z,1000.42
2018-01-10T03:27:08.595Z,1000.44
2018-01-10T03:28:08.607Z,1000.39
2018-01-10T03:29:08.630Z,1000.37
2018-01-10T03:30:08.631Z,1000.35
2018-01-10T03:31:08.657Z,1000.3
2018-01-10T03:32:08.662Z,1000.32
2018-01-10T03:33:08.676Z,1000.28
2018-01-10T03:34:08.674Z,1000.3
2018-01-10T03:35:08.684Z,1000.28
2018-01-10T03:36:08.708Z,1000.29
2018-01-10T03:37:08.708Z,1000.26
2018-01-10T03:38:08.728Z,1000.28
2018-01-10T03:39:08.739Z,1000.3
2018-01-10T03:40:08.740Z,1000.25
2018-01-10T03:41:08.750Z,1000.28
2018-01-10T03:42:08.772Z,1000.32
2018-01-10T03:43:08.784Z,1000.28
2018-01-10T03:44:08.796Z,1000.34
2018-01-10T03:45:08.795Z,1000.35
2018-01-10T03:46:08.805Z,1000.29
2018-01-10T03:47:08.820Z,1000.34
2018-01-10T03:48:08.840Z,1000.33
2018-01-10T03:49:08.849Z,1000.35
2018-01-10T03:50:08.849Z,1000.41
2018-01-10T03:51:08.871Z,1000.4
2018-01-10T03:52:08.871Z,1000.43
2018-01-10T03:53:08.892Z,1000.42
2018-01-10T03:54:08.904Z,1000.36
2018-01-10T03:55:08.904Z,1000.4
2018-01-10T03:56:08.929Z,1000.36
2018-01-10T03:57:08.940Z,1000.39
2018-01-10T03:58:08.948Z,1000.39
2018-01-10T03:59:08.949Z,1000.38
2018-01-10T04:00:08.962Z,1000.36
2018-01-10T04:01:08.982Z,1000.38
2018-01-10T04:02:08.991Z,1000.33
2018-01-10T04:03:09.002Z,1000.34
2018-01-10T04:04:09.013Z,1000.34
2018-01-10T04:05:09.013Z,1000.34
2018-01-10T04:06:09.025Z,1000.34
2018-01-10T04:07:09.047Z,1000.38
2018-01-10T04:08:09.057Z,1000.39
2018-01-10T04:09:09.072Z,1000.43
2018-01-10T04:10:09.082Z,1000.44
2018-01-10T04:11:09.088Z,1000.47
2018-01-10T04:12:09.100Z,1000.48
2018-01-10T04:13:09.103Z,1000.52
2018-01-10T04:14:09.121Z,1000.53
2018-01-10T04:15:09.123Z,1000.53
2018-01-10T04:16:09.133Z,1000.5
2018-01-10T04:17:09.144Z,1000.5
2018-01-10T04:18:09.161Z,1000.47
2018-01-10T04:19:09.176Z,1000.46
2018-01-10T04:20:09.187Z,1000.4
2018-01-10T04:21:09.198Z,1000.42
2018-01-10T04:22:09.212Z,1000.44
2018-01-10T04:23:09.209Z,1000.47
2018-01-10T04:24:09.222Z,1000.46
2018-01-10T04:25:09.231Z,1000.52
2018-01-10T04:26:09.252Z,1000.55
2018-01-10T04:27:09.345Z,1000.58
2018-01-10T04:28:09.268Z,1000.58
2018-01-10T04:29:09.284Z,1000.58
2018-01-10T04:30:09.295Z,1000.58
2018-01-10T04:31:09.295Z,1000.54
2018-01-10T04:32:09.306Z,1000.55
2018-01-10T04:33:09.318Z,1000.53
2018-01-10T04:34:09.340Z,1000.5
2018-01-10T04:35:09.352Z,1000.56
2018-01-10T04:36:09.351Z,1000.48
2018-01-10T04:37:09.372Z,1000.49
2018-01-10T04:38:09.398Z,1000.48
2018-01-10T04:39:09.395Z,1000.47
2018-01-10T04:40:09.394Z,1000.45
2018-01-10T04:41:09.405Z,1000.42
2018-01-10T04:42:09.415Z,1000.41
2018-01-10T04:43:09.426Z,1000.41
2018-01-10T04:44:09.436Z,1000.36
2018-01-10T04:45:09.447Z,1000.39
2018-01-10T04:46:09.458Z,1000.4
2018-01-10T04:47:09.468Z,1000.38
2018-01-10T04:48:09.480Z,1000.37
2018-01-10T04:49:09.501Z,1000.38
2018-01-10T04:50:09.502Z,1000.31
2018-01-10T04:51:09.512Z,1000.34
2018-01-10T04:52:09.533Z,1000.3
2018-01-10T04:53:09.544Z,1000.34
2018-01-10T04:54:09.555Z,1000.32
2018-01-10T04:55:09.555Z,1000.35
2018-01-10T04:56:09.565Z,1000.36
2018-01-10T04:57:09.586Z,1000.39
2018-01-10T04:58:09.597Z,1000.38
2018-01-10T04:59:09.609Z,1000.49
2018-01-10T05:00:09.609Z,1000.45
2018-01-10T05:01:09.632Z,1000.42
2018-01-10T05:02:09.644Z,1000.4
2018-01-10T05:03:09.643Z,1000.39
2018-01-10T05:04:09.642Z,1000.33
2018-01-10T05:05:09.663Z,1000.32
2018-01-10T05:06:09.692Z,1000.32
2018-01-10T05:07:09.685Z,1000.31
2018-01-10T05:08:09.685Z,1000.35
2018-01-10T05:09:09.696Z,1000.29
2018-01-10T05:10:09.706Z,1000.3
2018-01-10T05:11:09.717Z,1000.32
2018-01-10T05:12:09.729Z,1000.31
2018-01-10T05:13:09.740Z,1000.35
2018-01-10T05:14:09.760Z,1000.32
2018-01-10T05:15:09.760Z,1000.32
2018-01-10T05:16:09.771Z,1000.31
2018-01-10T05:17:09.791Z,1000.28
2018-01-10T05:18:09.802Z,1000.28
2018-01-10T05:19:09.805Z,1000.25
2018-01-10T05:20:09.828Z,1000.27
2018-01-10T05:21:09.825Z,1000.27
2018-01-10T05:22:09.845Z,1000.3
2018-01-10T05:23:09.851Z,1000.32
2018-01-10T05:24:09.855Z,1000.32
2018-01-10T05:25:09.867Z,1000.39
2018-01-10T05:26:09.877Z,1000.41
2018-01-10T05:27:09.887Z,1000.42
2018-01-10T05:28:09.908Z,1000.43
2018-01-10T05:29:09.910Z,1000.42
2018-01-10T05:30:09.925Z,1000.44
2018-01-10T05:31:09.929Z,1000.42
2018-01-10T05:32:09.940Z,1000.44
2018-01-10T05:33:09.962Z,1000.42
2018-01-10T05:34:09.973Z,1000.41
2018-01-10T05:35:09.974Z,1000.35
2018-01-10T05:36:09.995Z,1000.32
2018-01-10T05:37:09.993Z,1000.34
2018-01-10T05:38:10.004Z,1000.33
2018-01-10T05:39:10.025Z,1000.33
2018-01-10T05:40:10.035Z,1000.32
2018-01-10T05:41:10.046Z,1000.3
2018-01-10T05:42:10.046Z,1000.3
2018-01-10T05:43:10.064Z,1000.29
2018-01-10T05:44:10.070Z,1000.28
2018-01-10T05:45:10.088Z,1000.3
2018-01-10T05:46:10.099Z,1000.28
2018-01-10T05:47:10.109Z,1000.28
2018-01-10T05:48:10.109Z,1000.34
2018-01-10T05:49:10.119Z,1000.34
2018-01-10T05:50:10.131Z,1000.36
2018-01-10T05:51:10.152Z,1000.35
2018-01-10T05:52:10.161Z,1000.39
2018-01-10T05:53:10.161Z,1000.37
2018-01-10T05:54:10.172Z,1000.38
2018-01-10T05:55:10.182Z,1000.37
2018-01-10T05:56:10.193Z,1000.44
2018-01-10T05:57:10.203Z,1000.43
2018-01-10T05:58:10.214Z,1000.43
2018-01-10T05:59:10.224Z,1000.43
2018-01-10T06:00:10.244Z,1000.42
2018-01-10T06:01:10.257Z,1000.42
2018-01-10T06:02:10.268Z,1000.4
2018-01-10T06:03:10.268Z,1000.42
2018-01-10T06:04:10.276Z,1000.43
2018-01-10T06:05:10.298Z,1000.43
2018-01-10T06:06:10.308Z,1000.43
2018-01-10T06:07:10.308Z,1000.42
2018-01-10T06:08:10.327Z,1000.46
2018-01-10T06:09:10.344Z,1000.41
2018-01-10T06:10:10.342Z,1000.41
2018-01-10T06:11:10.351Z,1000.41
2018-01-10T06:12:10.361Z,1000.46
2018-01-10T06:13:10.377Z,1000.45
2018-01-10T06:14:10.393Z,1000.43
2018-01-10T06:15:10.392Z,1000.4
2018-01-10T06:16:10.403Z,1000.4
2018-01-10T06:17:10.464Z,1000.42
2018-01-10T06:18:10.465Z,1000.45
2018-01-10T06:19:10.439Z,1000.5
2018-01-10T06:20:10.456Z,1000.49
2018-01-10T06:21:10.466Z,1000.54
2018-01-10T06:22:10.468Z,1000.54
2018-01-10T06:23:10.487Z,1000.56
2018-01-10T06:24:10.498Z,1000.56
2018-01-10T06:25:10.499Z,1000.56
2018-01-10T06:26:10.519Z,1000.55
2018-01-10T06:27:10.579Z,1000.51
2018-01-10T06:28:10.530Z,1000.52
2018-01-10T06:29:10.539Z,1000.49
2018-01-10T06:30:10.550Z,1000.5
2018-01-10T06:31:10.560Z,1000.42
2018-01-10T06:32:10.621Z,1000.46
2018-01-10T06:33:10.582Z,1000.42
2018-01-10T06:34:10.604Z,1000.4
2018-01-10T06:35:10.613Z,1000.4
2018-01-10T06:36:10.624Z,1000.4
2018-01-10T06:37:10.634Z,1000.37
2018-01-10T06:38:10.645Z,1000.37
2018-01-10T06:39:10.652Z,1000.4
2018-01-10T06:40:10.666Z,1000.4
2018-01-10T06:41:10.665Z,1000.46
2018-01-10T06:42:10.738Z,1000.44
2018-01-10T06:43:10.698Z,1000.49
2018-01-10T06:44:10.707Z,1000.48
2018-01-10T06:45:10.708Z,1000.47
2018-01-10T06:46:10.731Z,1000.43
2018-01-10T06:47:10.741Z,1000.46
2018-01-10T06:48:10.754Z,1000.43
2018-01-10T06:49:10.752Z,1000.47
2018-01-10T06:50:10.771Z,1000.55
2018-01-10T06:51:10.774Z,1000.55
2018-01-10T06:52:10.783Z,1000.58
2018-01-10T06:53:10.792Z,1000.59
2018-01-10T06:54:10.803Z,1000.6
2018-01-10T06:55:10.823Z,1000.6
2018-01-10T06:56:10.834Z,1000.64
2018-01-10T06:57:10.845Z,1000.67
2018-01-10T06:58:10.845Z,1000.68
2018-01-10T06:59:10.854Z,1000.65
2018-01-10T07:00:10.876Z,1000.62
2018-01-10T07:01:10.890Z,1000.65
2018-01-10T07:02:10.888Z,1000.67
2018-01-10T07:03:10.908Z,1000.71
2018-01-10T07:04:10.909Z,1000.74
2018-01-10T07:05:10.931Z,1000.74
2018-01-10T07:06:10.930Z,1000.73
2018-01-10T07:07:10.951Z,1000.71
2018-01-10T07:08:10.952Z,1000.74
2018-01-10T07:09:10.973Z,1000.76
2018-01-10T07:10:10.988Z,1000.74
2018-01-10T07:11:10.996Z,1000.73
2018-01-10T07:12:11.004Z,1000.71
2018-01-10T07:13:11.014Z,1000.79
2018-01-10T07:14:11.025Z,1000.77
2018-01-10T07:15:11.035Z,1000.79
2018-01-10T07:16:11.037Z,1000.8
2018-01-10T07:17:11.056Z,1000.84
2018-01-10T07:18:11.067Z,1000.82
2018-01-10T07:19:11.068Z,1000.8
2018-01-10T07:20:11.079Z,1000.83
2018-01-10T07:21:11.099Z,1000.8
2018-01-10T07:22:11.110Z,1000.74
2018-01-10T07:23:11.121Z,1000.7
2018-01-10T07:24:11.131Z,1000.75
2018-01-10T07:25:11.142Z,1000.73
2018-01-10T07:26:11.144Z,1000.76
2018-01-10T07:27:11.199Z,1000.73
2018-01-10T07:28:11.173Z,1000.74
2018-01-10T07:29:11.184Z,1000.73
2018-01-10T07:30:11.184Z,1000.7
2018-01-10T07:31:11.196Z,1000.7
2018-01-10T07:32:11.216Z,1000.75
2018-01-10T07:33:11.227Z,1000.74
2018-01-10T07:34:11.228Z,1000.74
2018-01-10T07:35:11.241Z,1000.79
2018-01-10T07:36:11.249Z,1000.75
2018-01-10T07:37:11.259Z,1000.78
2018-01-10T07:38:11.274Z,1000.73
2018-01-10T07:39:11.291Z,1000.77
2018-01-10T07:40:11.293Z,1000.76
2018-01-10T07:41:11.302Z,1000.74
2018-01-10T07:42:11.321Z,1000.74
2018-01-10T07:43:11.358Z,1000.77
2018-01-10T07:44:11.345Z,1000.73
2018-01-10T07:45:11.350Z,1000.79
2018-01-10T07:46:11.367Z,1000.78
2018-01-10T07:47:11.380Z,1000.75
2018-01-10T07:48:11.384Z,1000.7
2018-01-10T07:49:11.393Z,1000.71
2018-01-10T07:50:11.400Z,1000.69
2018-01-10T07:51:11.421Z,1000.67
2018-01-10T07:52:11.421Z,1000.69
2018-01-10T07:53:11.443Z,1000.67
2018-01-10T07:54:11.453Z,1000.66
2018-01-10T07:55:11.464Z,1000.66
2018-01-10T07:56:11.476Z,1000.65
2018-01-10T07:57:11.474Z,1000.64
2018-01-10T07:58:11.496Z,1000.69
2018-01-10T07:59:11.507Z,1000.64
2018-01-10T08:00:11.522Z,1000.55
2018-01-10T08:01:11.523Z,1000.59
2018-01-10T08:02:11.586Z,1000.61
2018-01-10T08:03:11.589Z,1000.61
2018-01-10T08:04:11.550Z,1000.64
2018-01-10T08:05:11.561Z,1000.65
2018-01-10T08:06:11.571Z,1000.66
2018-01-10T08:07:11.583Z,1000.64
2018-01-10T08:08:11.593Z,1000.65
2018-01-10T08:09:11.657Z,1000.58
2018-01-10T08:10:11.626Z,1000.65
2018-01-10T08:11:11.625Z,1000.64
2018-01-10T08:12:11.636Z,1000.62
2018-01-10T08:13:11.659Z,1000.7
2018-01-10T08:14:11.658Z,1000.68
2018-01-10T08:15:11.670Z,1000.64
2018-01-10T08:16:11.689Z,1000.69
2018-01-10T08:17:11.704Z,1000.65
2018-01-10T08:18:11.702Z,1000.64
2018-01-10T08:19:11.717Z,1000.64
2018-01-10T08:20:11.733Z,1000.61
2018-01-10T08:21:11.736Z,1000.65
2018-01-10T08:22:11.758Z,1000.66
2018-01-10T08:23:11.754Z,1000.61
2018-01-10T08:24:11.765Z,1000.63
2018-01-10T08:25:11.777Z,1000.61
2018-01-10T08:26:11.798Z,1000.61
2018-01-10T08:27:11.808Z,1000.68
2018-01-10T08:28:11.808Z,1000.71
2018-01-10T08:29:11.830Z,1000.74
2018-01-10T08:30:11.830Z,1000.73
2018-01-10T08:31:11.853Z,1000.78
2018-01-10T08:32:11.870Z,1000.8
2018-01-10T08:33:11.873Z,1000.82
2018-01-10T08:34:11.873Z,1000.86
2018-01-10T08:35:11.886Z,1000.85
2018-01-10T08:36:11.909Z,1000.88
2018-01-10T08:37:11.908Z,1000.9
2018-01-10T08:38:11.920Z,1000.9
2018-01-10T08:39:11.957Z,1000.93
2018-01-10T08:40:11.938Z,1000.91
2018-01-10T08:41:11.948Z,1000.94
2018-01-10T08:42:12.038Z,1000.92
2018-01-10T08:43:11.981Z,1000.95
2018-01-10T08:44:11.982Z,1000.91
2018-01-10T08:45:12.003Z,1000.91
2018-01-10T08:46:12.003Z,1000.94
2018-01-10T08:47:12.020Z,1000.93
2018-01-10T08:48:12.036Z,1000.92
2018-01-10T08:49:12.045Z,1000.89
2018-01-10T08:50:12.049Z,1000.87
2018-01-10T08:51:12.061Z,1000.86
2018-01-10T08:52:12.079Z,1000.92
2018-01-10T08:53:12.093Z,1000.88
2018-01-10T08:54:12.100Z,1000.89
2018-01-10T08:55:12.111Z,1000.9
2018-01-10T08:56:12.114Z,1000.88
2018-01-10T08:57:12.122Z,1000.92
2018-01-10T08:58:12.133Z,1000.89
2018-01-10T08:59:12.153Z,1000.88
2018-01-10T09:00:12.167Z,1000.87
2018-01-10T09:01:12.165Z,1000.86
2018-01-10T09:02:12.187Z,1000.83
2018-01-10T09:03:12.186Z,1000.84
2018-01-10T09:04:12.203Z,1000.84
2018-01-10T09:05:12.220Z,1000.84
2018-01-10T09:06:12.221Z,1000.84
2018-01-10T09:07:12.229Z,1000.87
2018-01-10T09:08:12.254Z,1000.83
2018-01-10T09:09:12.253Z,1000.78
2018-01-10T09:10:12.273Z,1000.81
2018-01-10T09:11:12.285Z,1000.85
2018-01-10T09:12:12.285Z,1000.78
2018-01-10T09:13:12.298Z,1000.8
2018-01-10T09:14:12.317Z,1000.87
2018-01-10T09:15:12.331Z,1000.86
2018-01-10T09:16:12.340Z,1000.88
2018-01-10T09:17:12.352Z,1000.95
2018-01-10T09:18:12.362Z,1000.93
2018-01-10T09:19:12.363Z,1000.95
2018-01-10T09:20:12.386Z,1000.97
2018-01-10T09:21:12.384Z,1000.9
2018-01-10T09:22:12.397Z,1000.94
2018-01-10T09:23:12.408Z,1000.95
2018-01-10T09:24:12.419Z,1000.93
2018-01-10T09:25:12.430Z,1000.94
2018-01-10T09:26:12.450Z,1000.93
2018-01-10T09:27:12.462Z,1000.96
2018-01-10T09:28:12.472Z,1000.96
2018-01-10T09:29:12.473Z,1000.97
2018-01-10T09:30:12.502Z,1000.94
2018-01-10T09:31:12.495Z,1000.95
2018-01-10T09:32:12.517Z,1000.97
2018-01-10T09:33:12.518Z,1000.95
2018-01-10T09:34:12.529Z,1000.93
2018-01-10T09:35:12.552Z,1000.93
2018-01-10T09:36:12.579Z,1000.93
2018-01-10T09:37:12.561Z,1000.94
2018-01-10T09:38:12.583Z,1000.88
2018-01-10T09:39:12.583Z,1000.91
2018-01-10T09:40:12.594Z,1000.85
2018-01-10T09:41:12.605Z,1000.84
2018-01-10T09:42:12.629Z,1000.85
2018-01-10T09:43:12.638Z,1000.85
2018-01-10T09:44:12.651Z,1000.86
2018-01-10T09:45:12.661Z,1000.88
2018-01-10T09:46:12.664Z,1000.86
2018-01-10T09:47:12.683Z,1000.91
2018-01-10T09:48:12.695Z,1000.88
2018-01-10T09:49:12.710Z,1000.89
2018-01-10T09:50:12.718Z,1000.87
2018-01-10T09:51:12.729Z,1000.85
2018-01-10T09:52:12.743Z,1000.82
2018-01-10T09:53:12.743Z,1000.81
2018-01-10T09:54:12.753Z,1000.82
2018-01-10T09:55:12.764Z,1000.77
2018-01-10T09:56:12.774Z,1000.78
2018-01-10T09:57:12.796Z,1000.76
2018-01-10T09:58:12.797Z,1000.74
2018-01-10T09:59:12.809Z,1000.72
2018-01-10T10:00:12.822Z,1000.74
2018-01-10T10:01:12.841Z,1000.7
2018-01-10T10:02:12.841Z,1000.63
2018-01-10T10:03:12.853Z,1000.63
2018-01-10T10:04:12.868Z,1000.57
2018-01-10T10:05:12.889Z,1000.57
2018-01-10T10:06:12.888Z,1000.52
2018-01-10T10:07:12.911Z,1000.52
2018-01-10T10:08:12.972Z,1000.47
2018-01-10T10:09:12.932Z,1000.5
2018-01-10T10:10:12.944Z,1000.46
2018-01-10T10:11:12.956Z,1000.48
2018-01-10T10:12:12.967Z,1000.48
2018-01-10T10:13:13.018Z,1000.45
2018-01-10T10:14:12.981Z,1000.5
2018-01-10T10:15:12.991Z,1000.49
2018-01-10T10:16:13.003Z,1000.45
2018-01-10T10:17:13.016Z,1000.44
2018-01-10T10:18:13.027Z,1000.45
2018-01-10T10:19:13.041Z,1000.42
2018-01-10T10:20:13.060Z,1000.49
2018-01-10T10:21:13.114Z,1000.47
2018-01-10T10:22:13.074Z,1000.42
2018-01-10T10:23:13.095Z,1000.48
2018-01-10T10:24:13.095Z,1000.43
2018-01-10T10:25:13.109Z,1000.43
2018-01-10T10:26:13.131Z,1000.43
2018-01-10T10:27:13.132Z,1000.4
2018-01-10T10:28:13.300Z,1000.39
2018-01-10T10:29:13.165Z,1000.39
2018-01-10T10:30:13.167Z,1000.38
2018-01-10T10:31:13.178Z,1000.36
2018-01-10T10:32:13.188Z,1000.39
2018-01-10T10:33:13.201Z,1000.36
2018-01-10T10:34:13.214Z,1000.39
2018-01-10T10:35:13.224Z,1000.3
2018-01-10T10:36:13.247Z,1000.28
2018-01-10T10:37:13.260Z,1000.27
2018-01-10T10:38:13.261Z,1000.26
2018-01-10T10:39:13.283Z,1000.24
2018-01-10T10:40:13.289Z,1000.17
2018-01-10T10:41:13.296Z,1000.2
2018-01-10T10:42:13.319Z,1000.21
2018-01-10T10:43:13.320Z,1000.22
2018-01-10T10:44:13.343Z,1000.21
2018-01-10T10:45:13.344Z,1000.21
2018-01-10T10:46:13.356Z,1000.21
2018-01-10T10:47:13.379Z,1000.23
2018-01-10T10:48:13.390Z,1000.21
2018-01-10T10:49:13.402Z,1000.22
2018-01-10T10:50:13.414Z,1000.19
2018-01-10T10:51:13.417Z,1000.2
2018-01-10T10:52:13.429Z,1000.22
2018-01-10T10:53:13.452Z,1000.2
2018-01-10T10:54:13.452Z,1000.17
2018-01-10T10:55:13.472Z,1000.16
2018-01-10T10:56:13.488Z,1000.16
2018-01-10T10:57:13.501Z,1000.18
2018-01-10T10:58:13.501Z,1000.13
2018-01-10T10:59:13.526Z,1000.1
2018-01-10T11:00:13.529Z,1000.07
2018-01-10T11:01:13.538Z,1000.08
2018-01-10T11:02:13.552Z,1000.07
2018-01-10T11:03:13.572Z,1000.04
2018-01-10T11:04:13.586Z,1000.02
2018-01-10T11:05:13.599Z,1000.05
2018-01-10T11:06:13.611Z,1000.02
2018-01-10T11:07:13.624Z,1000.05
2018-01-10T11:08:13.623Z,1000.05
2018-01-10T11:09:13.645Z,1000.05
2018-01-10T11:10:13.660Z,1000.04
2018-01-10T11:11:13.674Z,1000.04
2018-01-10T11:12:13.689Z,1000.06
2018-01-10T11:13:13.688Z,1000.04
2018-01-10T11:14:13.709Z,1000.05
2018-01-10T11:15:13.721Z,1000.04
2018-01-10T11:16:13.722Z,1000.06
2018-01-10T11:17:13.736Z,1000.06
2018-01-10T11:18:13.761Z,1000.05
2018-01-10T11:19:13.759Z,1000.08
2018-01-10T11:20:13.782Z,1000.08
2018-01-10T11:21:13.787Z,1000.07
2018-01-10T11:22:13.836Z,1000.06
2018-01-10T11:23:13.821Z,1000.06
2018-01-10T11:24:13.823Z,1000.05
2018-01-10T11:25:13.834Z,1000.03
2018-01-10T11:26:13.859Z,1000
2018-01-10T11:27:13.871Z,1000.04
2018-01-10T11:28:13.884Z,1000.02
2018-01-10T11:29:13.884Z,999.98
2018-01-10T11:30:13.910Z,999.97
2018-01-10T11:31:13.910Z,999.96
2018-01-10T11:32:13.924Z,999.98
2018-01-10T11:33:13.946Z,999.99
2018-01-10T11:34:13.948Z,999.94
2018-01-10T11:35:13.972Z,999.9
2018-01-10T11:36:13.974Z,999.92
2018-01-10T11:37:13.988Z,999.86
2018-01-10T11:38:14.010Z,999.92
2018-01-10T11:39:14.022Z,999.86
2018-01-10T11:40:14.024Z,999.83
2018-01-10T11:41:14.037Z,999.86
2018-01-10T11:42:14.063Z,999.84
2018-01-10T11:43:14.065Z,999.77
2018-01-10T11:44:14.076Z,999.77
2018-01-10T11:45:14.099Z,999.79
2018-01-10T11:46:14.103Z,999.77
2018-01-10T11:47:14.125Z,999.75
2018-01-10T11:48:14.149Z,999.81
2018-01-10T11:49:14.140Z,999.76
2018-01-10T11:50:14.153Z,999.77
2018-01-10T11:51:14.166Z,999.76
2018-01-10T11:52:14.180Z,999.7
2018-01-10T11:53:14.198Z,999.74
2018-01-10T11:54:14.216Z,999.72
2018-01-10T11:55:14.218Z,999.7
2018-01-10T11:56:14.241Z,999.68
2018-01-10T11:57:14.254Z,999.7
2018-01-10T11:58:14.256Z,999.73
2018-01-10T11:59:14.320Z,999.68
2018-01-10T12:00:14.283Z,999.68
2018-01-10T12:01:14.302Z,999.67
2018-01-10T12:02:14.322Z,999.68
2018-01-10T12:03:14.322Z,999.69
2018-01-10T12:04:14.336Z,999.67
2018-01-10T12:05:14.361Z,999.67
2018-01-10T12:06:14.371Z,999.66
2018-01-10T12:07:14.388Z,999.65
2018-01-10T12:08:14.388Z,999.69
2018-01-10T12:09:14.410Z,999.65